»·PEaware :: FSLCD KLAX-KSAN

FSLCD :: KLAX-KSAN

FLIGHT INFORMATION

Flight Status: Arrived
Operator: Unknown
More flights by this operator :: More flights under this callsign
Pilot: Gopalakrishna Pillai Sulekha S. (22834)
Aircraft: ROBIN DR-400
(DR40)
More flights by this aircraft type
Origin: KLAX Los Angeles Intl
United States
Destination: KSAN San Diego Intl-Lindbergh
United States
More flights between these airports :: More routes between these airports
Route:
File this flight plan on PilotEdge
Remarks: CAT 11 RATING
Altitude:
(Current/Filed)
3,500ft
Speed:
(Current/Filed)
125kts
Departed: 04-Feb-19 05:52 PM
Arrived: 04-Feb-19 07:01 PM
Distance/Time
Traveled:
95nm/1:09
Distance/Time
To Go:
Arrived

Flight Plot

Page will automatically refresh every two minutes.


Map Options




Map Legend


Flown Route
Filed Route
Departure Airport
Arrival Airport
Navaid (VOR, NDB)
Fix

Horizontal Profiles

Position Reports

Time Latitude Longitude Heading Altitude Ground
Speed
04-Feb-19 17:40 33.932833 -118.399086 14 110ft 0kts
04-Feb-19 17:41 33.932833 -118.399086 14 110ft 0kts
04-Feb-19 17:42 33.932833 -118.399086 14 110ft 0kts
04-Feb-19 17:43 33.932833 -118.399086 14 110ft 0kts
04-Feb-19 17:44 33.932833 -118.399086 14 110ft 0kts
04-Feb-19 17:45 33.932839 -118.399084 14 110ft 1kts
04-Feb-19 17:46 33.934726 -118.396430 83 105ft 19kts
04-Feb-19 17:47 33.935406 -118.389773 83 100ft 21kts
04-Feb-19 17:48 33.936128 -118.383091 60 95ft 15kts
04-Feb-19 17:49 33.936469 -118.382777 7 95ft 0kts
04-Feb-19 17:50 33.936482 -118.382775 6 95ft 1kts
04-Feb-19 17:51 33.935780 -118.398806 263 558ft 90kts
04-Feb-19 17:52 33.933758 -118.434255 267 1483ft 113kts
04-Feb-19 17:53 33.932329 -118.471786 267 2376ft 101kts
04-Feb-19 17:54 33.931060 -118.505184 267 2998ft 108kts
04-Feb-19 17:56 33.929673 -118.541188 267 2999ft 107kts
04-Feb-19 17:57 33.928296 -118.577003 267 2999ft 107kts
04-Feb-19 17:58 33.910114 -118.584599 161 2997ft 73kts
04-Feb-19 17:59 33.886956 -118.575255 161 3105ft 106kts
04-Feb-19 18:00 33.858890 -118.563951 161 3100ft 105kts
04-Feb-19 18:01 33.831221 -118.552803 161 3100ft 105kts
04-Feb-19 18:02 33.803354 -118.541574 161 3100ft 105kts
04-Feb-19 18:03 33.775700 -118.530430 161 3100ft 105kts
04-Feb-19 18:04 33.748013 -118.519131 153 3099ft 105kts
04-Feb-19 18:05 33.733020 -118.492909 121 3496ft 87kts
04-Feb-19 18:06 33.718484 -118.464365 121 3596ft 97kts
04-Feb-19 18:07 33.705447 -118.439044 123 3590ft 84kts
04-Feb-19 18:08 33.693766 -118.415285 120 3594ft 85kts
04-Feb-19 18:09 33.679920 -118.387835 132 3595ft 112kts
04-Feb-19 18:10 33.658185 -118.359247 132 3591ft 117kts
04-Feb-19 18:11 33.636109 -118.330226 132 3591ft 117kts
04-Feb-19 18:12 33.614048 -118.301222 132 3591ft 117kts
04-Feb-19 18:13 33.591932 -118.272142 132 3591ft 117kts
04-Feb-19 18:14 33.569867 -118.243125 132 3591ft 117kts
04-Feb-19 18:15 33.547795 -118.214097 132 3591ft 117kts
04-Feb-19 18:16 33.525313 -118.185518 133 3591ft 117kts
04-Feb-19 18:16 33.506578 -118.161691 132 3591ft 117kts
04-Feb-19 18:17 33.484535 -118.132691 132 3591ft 117kts
04-Feb-19 18:19 33.458743 -118.098705 131 3591ft 117kts
04-Feb-19 18:19 33.441040 -118.073871 129 3591ft 117kts
04-Feb-19 18:20 33.420246 -118.043449 129 3591ft 117kts
04-Feb-19 18:21 33.399616 -118.013264 129 3591ft 117kts
04-Feb-19 18:22 33.378868 -117.982899 129 3591ft 117kts
04-Feb-19 18:23 33.358011 -117.952373 129 3591ft 117kts
04-Feb-19 18:24 33.336686 -117.922848 131 3591ft 117kts
04-Feb-19 18:25 33.314970 -117.893227 131 3591ft 117kts
04-Feb-19 18:26 33.293465 -117.863890 131 3591ft 117kts
04-Feb-19 18:27 33.271861 -117.834416 131 3591ft 117kts
04-Feb-19 18:28 33.250534 -117.804631 130 3591ft 117kts
04-Feb-19 18:29 33.229506 -117.774904 130 3590ft 114kts
04-Feb-19 18:30 33.209719 -117.746918 130 3590ft 106kts
04-Feb-19 18:31 33.190849 -117.720225 130 3595ft 101kts
04-Feb-19 18:32 33.174002 -117.696382 129 3608ft 90kts
04-Feb-19 18:33 33.157889 -117.673575 129 3609ft 89kts
04-Feb-19 18:34 33.141968 -117.651036 129 3609ft 89kts
04-Feb-19 18:35 33.123701 -117.641129 220 3604ft 71kts
04-Feb-19 18:36 33.108319 -117.657371 221 3610ft 75kts
04-Feb-19 18:37 33.092430 -117.674740 221 3610ft 78kts
04-Feb-19 18:38 33.075692 -117.663677 128 3614ft 80kts
04-Feb-19 18:39 33.061777 -117.640235 123 3630ft 91kts
04-Feb-19 18:40 33.047415 -117.614615 127 3632ft 93kts
04-Feb-19 18:41 33.031105 -117.590212 128 3633ft 94kts
04-Feb-19 18:42 33.013656 -117.564976 129 3422ft 105kts
04-Feb-19 18:43 32.995326 -117.538516 129 3125ft 99kts
04-Feb-19 18:44 32.976792 -117.511491 128 3108ft 105kts
04-Feb-19 18:45 32.958725 -117.484635 129 3109ft 102kts
04-Feb-19 18:46 32.940572 -117.458438 129 3109ft 103kts
04-Feb-19 18:47 32.922365 -117.431607 129 3109ft 103kts
04-Feb-19 18:48 32.904496 -117.404710 126 3109ft 103kts
04-Feb-19 18:49 32.887217 -117.376921 126 3109ft 103kts
04-Feb-19 18:50 32.870405 -117.349865 126 2863ft 101kts
04-Feb-19 18:51 32.854818 -117.324738 126 2273ft 87kts
04-Feb-19 18:52 32.842018 -117.304718 138 2008ft 74kts
04-Feb-19 18:53 32.824826 -117.286746 138 1756ft 91kts
04-Feb-19 18:54 32.805538 -117.266403 138 1497ft 85kts
04-Feb-19 18:55 32.787156 -117.247026 138 1335ft 96kts
04-Feb-19 18:56 32.766401 -117.225145 138 1003ft 96kts
04-Feb-19 18:57 32.750267 -117.204721 101 991ft 72kts
04-Feb-19 18:58 32.746829 -117.181754 96 947ft 76kts
04-Feb-19 18:59 32.736265 -117.166827 187 637ft 92kts
04-Feb-19 19:00 32.732591 -117.185648 286 14ft 31kts
04-Feb-19 19:01 32.733757 -117.188128 10 16ft 0kts
04-Feb-19 19:02 32.734685 -117.186514 20 16ft 0kts

Navigation Log

Ident Type
Flight plan parsing failed, navigation log unavailable